sensor_id;sensor_type;location;lat;lon;timestamp;P1;durP1;ratioP1;P2;durP2;ratioP2
3004;SDS011;1512;51.486;6.610;2023-07-16T00:01:01;5.17;;;2.87;;
3004;SDS011;1512;51.486;6.610;2023-07-16T00:05:10;5.27;;;3.20;;
3004;SDS011;1512;51.486;6.610;2023-07-16T00:09:18;7.60;;;3.17;;
3004;SDS011;1512;51.486;6.610;2023-07-16T00:13:27;6.57;;;4.57;;
3004;SDS011;1512;51.486;6.610;2023-07-16T00:17:36;3.20;;;2.93;;
3004;SDS011;1512;51.486;6.610;2023-07-16T00:21:44;3.83;;;3.17;;
3004;SDS011;1512;51.486;6.610;2023-07-16T00:25:54;4.17;;;3.42;;
3004;SDS011;1512;51.486;6.610;2023-07-16T00:30:02;5.37;;;3.20;;
3004;SDS011;1512;51.486;6.610;2023-07-16T00:34:11;3.50;;;3.20;;
3004;SDS011;1512;51.486;6.610;2023-07-16T00:38:20;6.57;;;3.37;;
3004;SDS011;1512;51.486;6.610;2023-07-16T00:42:29;4.40;;;3.27;;
3004;SDS011;1512;51.486;6.610;2023-07-16T00:46:37;4.33;;;2.73;;
3004;SDS011;1512;51.486;6.610;2023-07-16T00:50:46;3.90;;;3.50;;
3004;SDS011;1512;51.486;6.610;2023-07-16T00:54:55;4.20;;;3.80;;
3004;SDS011;1512;51.486;6.610;2023-07-16T00:59:04;3.87;;;3.10;;
3004;SDS011;1512;51.486;6.610;2023-07-16T01:03:13;4.80;;;3.40;;
3004;SDS011;1512;51.486;6.610;2023-07-16T01:07:23;6.80;;;3.47;;
3004;SDS011;1512;51.486;6.610;2023-07-16T01:16:03;5.95;;;3.45;;
3004;SDS011;1512;51.486;6.610;2023-07-16T01:20:12;5.13;;;2.67;;
3004;SDS011;1512;51.486;6.610;2023-07-16T01:29:18;4.10;;;3.70;;
3004;SDS011;1512;51.486;6.610;2023-07-16T01:33:28;4.30;;;3.87;;
3004;SDS011;1512;51.486;6.610;2023-07-16T01:37:37;3.23;;;2.93;;
3004;SDS011;1512;51.486;6.610;2023-07-16T01:41:46;5.03;;;3.20;;
3004;SDS011;1512;51.486;6.610;2023-07-16T01:45:55;3.70;;;3.30;;
3004;SDS011;1512;51.486;6.610;2023-07-16T01:50:03;4.40;;;3.00;;
3004;SDS011;1512;51.486;6.610;2023-07-16T01:54:13;3.83;;;3.35;;
3004;SDS011;1512;51.486;6.610;2023-07-16T01:58:21;4.30;;;3.40;;
3004;SDS011;1512;51.486;6.610;2023-07-16T02:02:30;3.47;;;3.17;;
3004;SDS011;1512;51.486;6.610;2023-07-16T02:06:38;4.27;;;3.20;;
3004;SDS011;1512;51.486;6.610;2023-07-16T02:10:47;9.80;;;4.10;;
3004;SDS011;1512;51.486;6.610;2023-07-16T02:14:56;3.87;;;3.47;;
3004;SDS011;1512;51.486;6.610;2023-07-16T02:19:05;4.10;;;3.70;;
3004;SDS011;1512;51.486;6.610;2023-07-16T02:23:13;4.87;;;4.47;;
3004;SDS011;1512;51.486;6.610;2023-07-16T02:27:22;3.87;;;3.30;;
3004;SDS011;1512;51.486;6.610;2023-07-16T02:31:30;3.07;;;2.77;;
3004;SDS011;1512;51.486;6.610;2023-07-16T02:35:39;5.13;;;3.80;;
3004;SDS011;1512;51.486;6.610;2023-07-16T02:39:48;4.00;;;3.60;;
3004;SDS011;1512;51.486;6.610;2023-07-16T02:44:00;4.10;;;3.43;;
3004;SDS011;1512;51.486;6.610;2023-07-16T02:48:10;6.93;;;3.13;;
3004;SDS011;1512;51.486;6.610;2023-07-16T02:52:19;4.60;;;3.47;;
3004;SDS011;1512;51.486;6.610;2023-07-16T02:56:28;3.97;;;3.27;;
3004;SDS011;1512;51.486;6.610;2023-07-16T03:00:36;5.80;;;3.83;;
3004;SDS011;1512;51.486;6.610;2023-07-16T03:04:45;3.73;;;3.20;;
3004;SDS011;1512;51.486;6.610;2023-07-16T03:08:54;3.50;;;2.90;;
3004;SDS011;1512;51.486;6.610;2023-07-16T03:13:03;6.90;;;3.37;;
3004;SDS011;1512;51.486;6.610;2023-07-16T03:17:12;6.50;;;3.43;;
3004;SDS011;1512;51.486;6.610;2023-07-16T03:21:20;6.50;;;3.30;;
3004;SDS011;1512;51.486;6.610;2023-07-16T03:25:29;3.50;;;3.10;;
3004;SDS011;1512;51.486;6.610;2023-07-16T03:29:38;7.40;;;3.70;;
3004;SDS011;1512;51.486;6.610;2023-07-16T03:33:46;3.47;;;3.17;;
3004;SDS011;1512;51.486;6.610;2023-07-16T03:37:55;4.90;;;3.50;;
3004;SDS011;1512;51.486;6.610;2023-07-16T03:42:04;6.27;;;3.30;;
3004;SDS011;1512;51.486;6.610;2023-07-16T03:46:13;4.70;;;3.20;;
3004;SDS011;1512;51.486;6.610;2023-07-16T03:50:22;6.53;;;3.80;;
3004;SDS011;1512;51.486;6.610;2023-07-16T03:54:30;4.70;;;3.63;;
3004;SDS011;1512;51.486;6.610;2023-07-16T03:58:39;4.37;;;3.97;;
3004;SDS011;1512;51.486;6.610;2023-07-16T04:02:48;7.20;;;4.53;;
3004;SDS011;1512;51.486;6.610;2023-07-16T04:06:56;4.60;;;3.50;;
3004;SDS011;1512;51.486;6.610;2023-07-16T04:11:05;6.13;;;3.20;;
3004;SDS011;1512;51.486;6.610;2023-07-16T04:15:14;4.53;;;3.50;;
3004;SDS011;1512;51.486;6.610;2023-07-16T04:19:23;3.90;;;3.40;;
3004;SDS011;1512;51.486;6.610;2023-07-16T04:23:32;4.37;;;3.40;;
3004;SDS011;1512;51.486;6.610;2023-07-16T04:27:40;4.93;;;3.20;;
3004;SDS011;1512;51.486;6.610;2023-07-16T04:31:50;4.00;;;3.60;;
3004;SDS011;1512;51.486;6.610;2023-07-16T04:35:59;4.13;;;3.57;;
3004;SDS011;1512;51.486;6.610;2023-07-16T04:40:07;9.43;;;4.10;;
3004;SDS011;1512;51.486;6.610;2023-07-16T04:44:16;4.87;;;3.47;;
3004;SDS011;1512;51.486;6.610;2023-07-16T04:48:25;6.53;;;3.77;;
3004;SDS011;1512;51.486;6.610;2023-07-16T04:52:34;5.60;;;3.77;;
3004;SDS011;1512;51.486;6.610;2023-07-16T04:56:43;5.40;;;3.87;;
3004;SDS011;1512;51.486;6.610;2023-07-16T05:00:51;9.90;;;4.50;;
3004;SDS011;1512;51.486;6.610;2023-07-16T05:05:00;6.10;;;3.63;;
3004;SDS011;1512;51.486;6.610;2023-07-16T05:09:09;6.57;;;5.00;;
3004;SDS011;1512;51.486;6.610;2023-07-16T05:13:18;5.37;;;3.97;;
3004;SDS011;1512;51.486;6.610;2023-07-16T05:17:26;6.30;;;4.37;;
3004;SDS011;1512;51.486;6.610;2023-07-16T05:21:35;4.33;;;3.30;;
3004;SDS011;1512;51.486;6.610;2023-07-16T05:25:47;6.17;;;3.83;;
3004;SDS011;1512;51.486;6.610;2023-07-16T05:29:56;7.00;;;3.67;;
3004;SDS011;1512;51.486;6.610;2023-07-16T05:34:05;9.83;;;4.13;;
3004;SDS011;1512;51.486;6.610;2023-07-16T05:38:14;7.70;;;3.70;;
3004;SDS011;1512;51.486;6.610;2023-07-16T05:42:23;7.27;;;4.30;;
3004;SDS011;1512;51.486;6.610;2023-07-16T05:46:32;9.93;;;3.70;;
3004;SDS011;1512;51.486;6.610;2023-07-16T05:50:43;4.27;;;3.60;;
3004;SDS011;1512;51.486;6.610;2023-07-16T05:54:52;4.10;;;3.50;;
3004;SDS011;1512;51.486;6.610;2023-07-16T05:59:01;6.43;;;3.73;;
3004;SDS011;1512;51.486;6.610;2023-07-16T06:03:10;6.17;;;3.73;;
3004;SDS011;1512;51.486;6.610;2023-07-16T06:07:19;8.10;;;4.40;;
3004;SDS011;1512;51.486;6.610;2023-07-16T06:11:28;5.70;;;4.13;;
3004;SDS011;1512;51.486;6.610;2023-07-16T06:15:36;9.50;;;3.67;;
3004;SDS011;1512;51.486;6.610;2023-07-16T06:19:45;7.60;;;4.80;;
3004;SDS011;1512;51.486;6.610;2023-07-16T06:23:55;5.10;;;4.20;;
3004;SDS011;1512;51.486;6.610;2023-07-16T06:28:04;6.57;;;4.17;;
3004;SDS011;1512;51.486;6.610;2023-07-16T06:36:40;6.83;;;4.23;;
3004;SDS011;1512;51.486;6.610;2023-07-16T06:40:49;7.60;;;4.73;;
3004;SDS011;1512;51.486;6.610;2023-07-16T06:44:59;7.73;;;5.43;;
3004;SDS011;1512;51.486;6.610;2023-07-16T06:49:07;8.50;;;5.70;;
3004;SDS011;1512;51.486;6.610;2023-07-16T06:53:16;7.33;;;4.70;;
3004;SDS011;1512;51.486;6.610;2023-07-16T06:57:25;9.53;;;4.80;;
3004;SDS011;1512;51.486;6.610;2023-07-16T07:01:34;5.30;;;4.77;;
3004;SDS011;1512;51.486;6.610;2023-07-16T07:05:43;6.70;;;5.10;;
3004;SDS011;1512;51.486;6.610;2023-07-16T07:09:51;9.47;;;4.50;;
3004;SDS011;1512;51.486;6.610;2023-07-16T07:14:00;10.07;;;4.53;;
3004;SDS011;1512;51.486;6.610;2023-07-16T07:18:09;7.70;;;5.03;;
3004;SDS011;1512;51.486;6.610;2023-07-16T07:22:18;8.90;;;5.03;;
3004;SDS011;1512;51.486;6.610;2023-07-16T07:26:28;5.03;;;4.50;;
3004;SDS011;1512;51.486;6.610;2023-07-16T07:30:37;7.47;;;4.80;;
3004;SDS011;1512;51.486;6.610;2023-07-16T07:34:45;11.20;;;5.70;;
3004;SDS011;1512;51.486;6.610;2023-07-16T07:38:55;6.13;;;5.30;;
3004;SDS011;1512;51.486;6.610;2023-07-16T07:43:03;12.10;;;5.60;;
3004;SDS011;1512;51.486;6.610;2023-07-16T07:47:12;7.37;;;5.00;;
3004;SDS011;1512;51.486;6.610;2023-07-16T07:51:21;5.80;;;4.90;;
3004;SDS011;1512;51.486;6.610;2023-07-16T07:55:30;9.27;;;5.07;;
3004;SDS011;1512;51.486;6.610;2023-07-16T07:59:39;7.40;;;4.83;;
3004;SDS011;1512;51.486;6.610;2023-07-16T08:03:48;8.37;;;6.27;;
3004;SDS011;1512;51.486;6.610;2023-07-16T08:07:57;10.73;;;5.50;;
3004;SDS011;1512;51.486;6.610;2023-07-16T08:12:06;7.77;;;5.50;;
3004;SDS011;1512;51.486;6.610;2023-07-16T08:16:15;9.00;;;5.50;;
3004;SDS011;1512;51.486;6.610;2023-07-16T08:20:25;7.00;;;4.77;;
3004;SDS011;1512;51.486;6.610;2023-07-16T08:24:34;10.00;;;5.67;;
3004;SDS011;1512;51.486;6.610;2023-07-16T08:28:43;9.37;;;5.33;;
3004;SDS011;1512;51.486;6.610;2023-07-16T08:32:52;7.33;;;5.03;;
3004;SDS011;1512;51.486;6.610;2023-07-16T08:37:02;7.40;;;5.30;;
3004;SDS011;1512;51.486;6.610;2023-07-16T08:41:11;7.17;;;4.80;;
3004;SDS011;1512;51.486;6.610;2023-07-16T08:45:20;6.37;;;4.47;;
3004;SDS011;1512;51.486;6.610;2023-07-16T08:49:30;7.80;;;5.00;;
3004;SDS011;1512;51.486;6.610;2023-07-16T08:53:41;7.87;;;4.53;;
3004;SDS011;1512;51.486;6.610;2023-07-16T08:57:50;8.50;;;4.63;;
3004;SDS011;1512;51.486;6.610;2023-07-16T09:01:59;11.80;;;4.50;;
3004;SDS011;1512;51.486;6.610;2023-07-16T09:06:08;11.93;;;4.93;;
3004;SDS011;1512;51.486;6.610;2023-07-16T09:10:17;7.10;;;4.70;;
3004;SDS011;1512;51.486;6.610;2023-07-16T09:14:26;6.03;;;4.90;;
3004;SDS011;1512;51.486;6.610;2023-07-16T09:18:34;6.50;;;4.90;;
3004;SDS011;1512;51.486;6.610;2023-07-16T09:22:43;6.10;;;4.20;;
3004;SDS011;1512;51.486;6.610;2023-07-16T09:26:53;8.17;;;4.60;;
3004;SDS011;1512;51.486;6.610;2023-07-16T09:31:07;6.60;;;4.60;;
3004;SDS011;1512;51.486;6.610;2023-07-16T09:35:16;7.60;;;4.93;;
3004;SDS011;1512;51.486;6.610;2023-07-16T09:39:26;8.57;;;4.90;;
3004;SDS011;1512;51.486;6.610;2023-07-16T09:43:35;5.40;;;4.07;;
3004;SDS011;1512;51.486;6.610;2023-07-16T09:47:46;7.90;;;5.07;;
3004;SDS011;1512;51.486;6.610;2023-07-16T09:51:56;5.27;;;4.10;;
3004;SDS011;1512;51.486;6.610;2023-07-16T09:56:05;8.40;;;3.90;;
3004;SDS011;1512;51.486;6.610;2023-07-16T10:00:16;7.83;;;4.13;;
3004;SDS011;1512;51.486;6.610;2023-07-16T10:04:36;7.37;;;4.00;;
3004;SDS011;1512;51.486;6.610;2023-07-16T10:08:39;4.93;;;4.43;;
3004;SDS011;1512;51.486;6.610;2023-07-16T10:12:58;4.70;;;3.80;;
3004;SDS011;1512;51.486;6.610;2023-07-16T10:17:11;4.77;;;4.00;;
3004;SDS011;1512;51.486;6.610;2023-07-16T10:21:26;5.92;;;4.45;;
3004;SDS011;1512;51.486;6.610;2023-07-16T10:25:35;5.97;;;4.20;;
3004;SDS011;1512;51.486;6.610;2023-07-16T10:29:43;5.90;;;4.40;;
3004;SDS011;1512;51.486;6.610;2023-07-16T10:33:57;7.57;;;4.30;;
3004;SDS011;1512;51.486;6.610;2023-07-16T10:38:12;5.10;;;4.40;;
3004;SDS011;1512;51.486;6.610;2023-07-16T10:42:23;6.07;;;4.20;;
3004;SDS011;1512;51.486;6.610;2023-07-16T10:46:33;5.80;;;4.03;;
3004;SDS011;1512;51.486;6.610;2023-07-16T10:50:42;7.60;;;3.90;;
3004;SDS011;1512;51.486;6.610;2023-07-16T10:54:50;7.33;;;4.67;;
3004;SDS011;1512;51.486;6.610;2023-07-16T10:59:01;7.50;;;4.10;;
3004;SDS011;1512;51.486;6.610;2023-07-16T11:03:10;11.87;;;4.70;;
3004;SDS011;1512;51.486;6.610;2023-07-16T11:07:21;6.43;;;4.03;;
3004;SDS011;1512;51.486;6.610;2023-07-16T11:11:30;5.30;;;4.17;;
3004;SDS011;1512;51.486;6.610;2023-07-16T11:15:39;4.00;;;3.60;;
3004;SDS011;1512;51.486;6.610;2023-07-16T11:19:48;6.45;;;3.55;;
3004;SDS011;1512;51.486;6.610;2023-07-16T11:24:08;9.97;;;4.83;;
3004;SDS011;1512;51.486;6.610;2023-07-16T11:28:22;6.73;;;3.77;;
3004;SDS011;1512;51.486;6.610;2023-07-16T11:36:51;6.47;;;4.63;;
3004;SDS011;1512;51.486;6.610;2023-07-16T11:41:00;8.40;;;4.10;;
3004;SDS011;1512;51.486;6.610;2023-07-16T11:45:22;4.90;;;4.20;;
3004;SDS011;1512;51.486;6.610;2023-07-16T11:49:35;5.97;;;3.70;;
3004;SDS011;1512;51.486;6.610;2023-07-16T11:53:44;5.00;;;3.60;;
3004;SDS011;1512;51.486;6.610;2023-07-16T11:57:52;4.40;;;3.97;;
3004;SDS011;1512;51.486;6.610;2023-07-16T12:02:03;5.23;;;4.27;;
3004;SDS011;1512;51.486;6.610;2023-07-16T12:06:12;3.90;;;3.00;;
3004;SDS011;1512;51.486;6.610;2023-07-16T12:10:21;4.50;;;3.27;;
3004;SDS011;1512;51.486;6.610;2023-07-16T12:14:30;4.33;;;3.17;;
3004;SDS011;1512;51.486;6.610;2023-07-16T12:18:39;4.50;;;3.70;;
3004;SDS011;1512;51.486;6.610;2023-07-16T12:22:48;4.60;;;3.80;;
3004;SDS011;1512;51.486;6.610;2023-07-16T12:26:56;3.73;;;3.13;;
3004;SDS011;1512;51.486;6.610;2023-07-16T12:31:05;3.73;;;3.40;;
3004;SDS011;1512;51.486;6.610;2023-07-16T12:35:14;5.60;;;3.73;;
3004;SDS011;1512;51.486;6.610;2023-07-16T12:39:23;4.77;;;3.83;;
3004;SDS011;1512;51.486;6.610;2023-07-16T12:43:31;4.37;;;3.73;;
3004;SDS011;1512;51.486;6.610;2023-07-16T12:47:43;4.40;;;4.00;;
3004;SDS011;1512;51.486;6.610;2023-07-16T12:51:51;4.80;;;3.53;;
3004;SDS011;1512;51.486;6.610;2023-07-16T12:56:00;5.77;;;3.80;;
3004;SDS011;1512;51.486;6.610;2023-07-16T13:00:09;6.53;;;2.90;;
3004;SDS011;1512;51.486;6.610;2023-07-16T13:04:18;5.00;;;3.63;;
3004;SDS011;1512;51.486;6.610;2023-07-16T13:08:27;3.70;;;3.30;;
3004;SDS011;1512;51.486;6.610;2023-07-16T13:12:36;4.70;;;3.33;;
3004;SDS011;1512;51.486;6.610;2023-07-16T13:16:45;6.53;;;3.30;;
3004;SDS011;1512;51.486;6.610;2023-07-16T13:20:53;5.17;;;3.50;;
3004;SDS011;1512;51.486;6.610;2023-07-16T13:25:02;3.30;;;2.97;;
3004;SDS011;1512;51.486;6.610;2023-07-16T13:29:11;4.23;;;3.07;;
3004;SDS011;1512;51.486;6.610;2023-07-16T13:33:20;4.63;;;3.93;;
3004;SDS011;1512;51.486;6.610;2023-07-16T13:37:30;7.63;;;3.60;;
3004;SDS011;1512;51.486;6.610;2023-07-16T13:41:38;6.63;;;3.53;;
3004;SDS011;1512;51.486;6.610;2023-07-16T13:45:47;4.53;;;3.90;;
3004;SDS011;1512;51.486;6.610;2023-07-16T13:49:56;4.10;;;3.17;;
3004;SDS011;1512;51.486;6.610;2023-07-16T13:54:05;5.03;;;3.77;;
3004;SDS011;1512;51.486;6.610;2023-07-16T13:58:14;5.00;;;3.57;;
3004;SDS011;1512;51.486;6.610;2023-07-16T14:02:22;3.70;;;3.40;;
3004;SDS011;1512;51.486;6.610;2023-07-16T14:06:31;4.10;;;3.27;;
3004;SDS011;1512;51.486;6.610;2023-07-16T14:10:40;5.07;;;4.13;;
3004;SDS011;1512;51.486;6.610;2023-07-16T14:19:17;5.03;;;3.23;;
3004;SDS011;1512;51.486;6.610;2023-07-16T14:23:26;8.20;;;3.67;;
3004;SDS011;1512;51.486;6.610;2023-07-16T14:27:34;4.00;;;3.10;;
3004;SDS011;1512;51.486;6.610;2023-07-16T14:31:43;4.23;;;2.90;;
3004;SDS011;1512;51.486;6.610;2023-07-16T14:35:52;6.27;;;4.00;;
3004;SDS011;1512;51.486;6.610;2023-07-16T14:40:00;8.23;;;3.00;;
3004;SDS011;1512;51.486;6.610;2023-07-16T14:44:11;12.73;;;3.97;;
3004;SDS011;1512;51.486;6.610;2023-07-16T14:48:19;4.03;;;3.20;;
3004;SDS011;1512;51.486;6.610;2023-07-16T14:52:29;6.07;;;3.53;;
3004;SDS011;1512;51.486;6.610;2023-07-16T14:56:38;3.47;;;3.00;;
3004;SDS011;1512;51.486;6.610;2023-07-16T15:00:47;3.57;;;3.27;;
3004;SDS011;1512;51.486;6.610;2023-07-16T15:04:56;3.53;;;3.20;;
3004;SDS011;1512;51.486;6.610;2023-07-16T15:09:04;6.20;;;3.33;;
3004;SDS011;1512;51.486;6.610;2023-07-16T15:13:14;3.30;;;3.00;;
3004;SDS011;1512;51.486;6.610;2023-07-16T15:17:23;3.93;;;3.53;;
3004;SDS011;1512;51.486;6.610;2023-07-16T15:21:32;4.10;;;3.30;;
3004;SDS011;1512;51.486;6.610;2023-07-16T15:25:41;5.93;;;3.30;;
3004;SDS011;1512;51.486;6.610;2023-07-16T15:29:50;4.30;;;3.50;;
3004;SDS011;1512;51.486;6.610;2023-07-16T15:33:58;7.40;;;3.80;;
3004;SDS011;1512;51.486;6.610;2023-07-16T15:38:07;4.00;;;3.00;;
3004;SDS011;1512;51.486;6.610;2023-07-16T15:42:16;4.10;;;3.40;;
3004;SDS011;1512;51.486;6.610;2023-07-16T15:46:24;6.77;;;3.67;;
3004;SDS011;1512;51.486;6.610;2023-07-16T15:50:33;4.57;;;3.87;;
3004;SDS011;1512;51.486;6.610;2023-07-16T15:54:42;4.77;;;3.97;;
3004;SDS011;1512;51.486;6.610;2023-07-16T15:58:50;3.53;;;3.23;;
3004;SDS011;1512;51.486;6.610;2023-07-16T16:02:59;5.23;;;3.53;;
3004;SDS011;1512;51.486;6.610;2023-07-16T16:07:09;4.65;;;3.45;;
3004;SDS011;1512;51.486;6.610;2023-07-16T16:11:17;9.13;;;5.97;;
3004;SDS011;1512;51.486;6.610;2023-07-16T16:15:28;4.00;;;3.47;;
3004;SDS011;1512;51.486;6.610;2023-07-16T16:19:36;6.17;;;3.57;;
3004;SDS011;1512;51.486;6.610;2023-07-16T16:23:46;8.63;;;3.60;;
3004;SDS011;1512;51.486;6.610;2023-07-16T16:27:55;6.43;;;3.83;;
3004;SDS011;1512;51.486;6.610;2023-07-16T16:32:04;6.93;;;4.03;;
3004;SDS011;1512;51.486;6.610;2023-07-16T16:36:13;4.30;;;3.40;;
3004;SDS011;1512;51.486;6.610;2023-07-16T16:40:22;6.70;;;3.47;;
3004;SDS011;1512;51.486;6.610;2023-07-16T16:44:31;5.30;;;3.70;;
3004;SDS011;1512;51.486;6.610;2023-07-16T16:48:39;5.50;;;4.03;;
3004;SDS011;1512;51.486;6.610;2023-07-16T16:52:50;6.83;;;4.50;;
3004;SDS011;1512;51.486;6.610;2023-07-16T16:56:59;5.13;;;3.40;;
3004;SDS011;1512;51.486;6.610;2023-07-16T17:01:07;5.07;;;4.10;;
3004;SDS011;1512;51.486;6.610;2023-07-16T17:05:16;4.93;;;4.00;;
3004;SDS011;1512;51.486;6.610;2023-07-16T17:09:25;5.70;;;3.73;;
3004;SDS011;1512;51.486;6.610;2023-07-16T17:13:34;5.13;;;3.80;;
3004;SDS011;1512;51.486;6.610;2023-07-16T17:17:43;6.57;;;3.40;;
3004;SDS011;1512;51.486;6.610;2023-07-16T17:21:52;4.40;;;3.60;;
3004;SDS011;1512;51.486;6.610;2023-07-16T17:26:00;6.07;;;4.00;;
3004;SDS011;1512;51.486;6.610;2023-07-16T17:30:09;5.83;;;4.40;;
3004;SDS011;1512;51.486;6.610;2023-07-16T17:34:19;4.97;;;3.60;;
3004;SDS011;1512;51.486;6.610;2023-07-16T17:38:27;5.03;;;4.20;;
3004;SDS011;1512;51.486;6.610;2023-07-16T17:42:36;4.03;;;3.20;;
3004;SDS011;1512;51.486;6.610;2023-07-16T17:46:48;9.50;;;4.23;;
3004;SDS011;1512;51.486;6.610;2023-07-16T17:50:57;7.00;;;4.00;;
3004;SDS011;1512;51.486;6.610;2023-07-16T17:55:06;8.00;;;4.57;;
3004;SDS011;1512;51.486;6.610;2023-07-16T17:59:15;5.37;;;3.60;;
3004;SDS011;1512;51.486;6.610;2023-07-16T18:03:23;7.03;;;4.37;;
3004;SDS011;1512;51.486;6.610;2023-07-16T18:07:32;4.03;;;3.57;;
3004;SDS011;1512;51.486;6.610;2023-07-16T18:11:41;5.07;;;4.20;;
3004;SDS011;1512;51.486;6.610;2023-07-16T18:15:51;8.80;;;3.77;;
3004;SDS011;1512;51.486;6.610;2023-07-16T18:20:00;6.00;;;4.23;;
3004;SDS011;1512;51.486;6.610;2023-07-16T18:24:11;4.27;;;3.70;;
3004;SDS011;1512;51.486;6.610;2023-07-16T18:28:19;6.20;;;4.10;;
3004;SDS011;1512;51.486;6.610;2023-07-16T18:32:28;4.30;;;3.83;;
3004;SDS011;1512;51.486;6.610;2023-07-16T18:36:37;4.73;;;3.90;;
3004;SDS011;1512;51.486;6.610;2023-07-16T18:40:45;5.07;;;4.10;;
3004;SDS011;1512;51.486;6.610;2023-07-16T18:44:54;7.07;;;4.87;;
3004;SDS011;1512;51.486;6.610;2023-07-16T18:49:05;6.60;;;4.70;;
3004;SDS011;1512;51.486;6.610;2023-07-16T18:53:15;4.53;;;3.97;;
3004;SDS011;1512;51.486;6.610;2023-07-16T18:57:24;6.73;;;4.43;;
3004;SDS011;1512;51.486;6.610;2023-07-16T19:01:34;6.40;;;5.20;;
3004;SDS011;1512;51.486;6.610;2023-07-16T19:05:43;5.53;;;4.40;;
3004;SDS011;1512;51.486;6.610;2023-07-16T19:09:53;5.77;;;4.70;;
3004;SDS011;1512;51.486;6.610;2023-07-16T19:14:03;4.77;;;4.27;;
3004;SDS011;1512;51.486;6.610;2023-07-16T19:18:13;5.73;;;4.67;;
3004;SDS011;1512;51.486;6.610;2023-07-16T19:22:23;9.27;;;6.13;;
3004;SDS011;1512;51.486;6.610;2023-07-16T19:26:34;8.97;;;5.10;;
3004;SDS011;1512;51.486;6.610;2023-07-16T19:30:44;5.47;;;3.53;;
3004;SDS011;1512;51.486;6.610;2023-07-16T19:34:53;8.80;;;4.53;;
3004;SDS011;1512;51.486;6.610;2023-07-16T19:39:02;5.67;;;3.97;;
3004;SDS011;1512;51.486;6.610;2023-07-16T19:43:11;4.67;;;3.80;;
3004;SDS011;1512;51.486;6.610;2023-07-16T19:47:21;5.83;;;3.63;;
3004;SDS011;1512;51.486;6.610;2023-07-16T19:51:30;5.07;;;3.63;;
3004;SDS011;1512;51.486;6.610;2023-07-16T19:55:40;5.60;;;4.25;;
3004;SDS011;1512;51.486;6.610;2023-07-16T19:59:49;6.93;;;4.10;;
3004;SDS011;1512;51.486;6.610;2023-07-16T20:03:57;4.73;;;3.87;;
3004;SDS011;1512;51.486;6.610;2023-07-16T20:08:06;6.20;;;4.30;;
3004;SDS011;1512;51.486;6.610;2023-07-16T20:12:17;5.33;;;4.10;;
3004;SDS011;1512;51.486;6.610;2023-07-16T20:16:26;5.83;;;3.90;;
3004;SDS011;1512;51.486;6.610;2023-07-16T20:20:36;8.43;;;4.17;;
3004;SDS011;1512;51.486;6.610;2023-07-16T20:24:45;11.90;;;4.60;;
3004;SDS011;1512;51.486;6.610;2023-07-16T20:28:53;5.83;;;4.37;;
3004;SDS011;1512;51.486;6.610;2023-07-16T20:33:02;5.57;;;4.97;;
3004;SDS011;1512;51.486;6.610;2023-07-16T20:37:11;4.50;;;3.90;;
3004;SDS011;1512;51.486;6.610;2023-07-16T20:41:20;9.57;;;4.17;;
3004;SDS011;1512;51.486;6.610;2023-07-16T20:45:28;5.67;;;3.73;;
3004;SDS011;1512;51.486;6.610;2023-07-16T20:49:37;5.30;;;3.67;;
3004;SDS011;1512;51.486;6.610;2023-07-16T20:53:46;5.80;;;3.90;;
3004;SDS011;1512;51.486;6.610;2023-07-16T20:57:55;8.23;;;4.20;;
3004;SDS011;1512;51.486;6.610;2023-07-16T21:02:03;7.30;;;3.93;;
3004;SDS011;1512;51.486;6.610;2023-07-16T21:06:12;4.93;;;3.90;;
3004;SDS011;1512;51.486;6.610;2023-07-16T21:10:21;6.33;;;3.90;;
3004;SDS011;1512;51.486;6.610;2023-07-16T21:14:31;6.47;;;4.10;;
3004;SDS011;1512;51.486;6.610;2023-07-16T21:18:39;4.93;;;4.30;;
3004;SDS011;1512;51.486;6.610;2023-07-16T21:22:50;7.87;;;5.53;;
3004;SDS011;1512;51.486;6.610;2023-07-16T21:26:58;6.60;;;4.93;;
3004;SDS011;1512;51.486;6.610;2023-07-16T21:31:07;5.87;;;3.87;;
3004;SDS011;1512;51.486;6.610;2023-07-16T21:35:16;4.90;;;4.20;;
3004;SDS011;1512;51.486;6.610;2023-07-16T21:39:25;5.03;;;4.50;;
3004;SDS011;1512;51.486;6.610;2023-07-16T21:43:33;4.93;;;4.00;;
3004;SDS011;1512;51.486;6.610;2023-07-16T21:47:42;7.03;;;4.45;;
3004;SDS011;1512;51.486;6.610;2023-07-16T21:51:50;5.10;;;3.90;;
3004;SDS011;1512;51.486;6.610;2023-07-16T21:56:01;6.90;;;3.53;;
3004;SDS011;1512;51.486;6.610;2023-07-16T22:00:10;6.53;;;4.53;;
3004;SDS011;1512;51.486;6.610;2023-07-16T22:04:20;5.27;;;4.00;;
3004;SDS011;1512;51.486;6.610;2023-07-16T22:08:28;4.90;;;3.90;;
3004;SDS011;1512;51.486;6.610;2023-07-16T22:12:37;8.23;;;4.97;;
3004;SDS011;1512;51.486;6.610;2023-07-16T22:16:46;6.00;;;4.17;;
3004;SDS011;1512;51.486;6.610;2023-07-16T22:20:56;6.10;;;4.30;;
3004;SDS011;1512;51.486;6.610;2023-07-16T22:25:04;6.70;;;4.40;;
3004;SDS011;1512;51.486;6.610;2023-07-16T22:29:13;7.07;;;4.30;;
3004;SDS011;1512;51.486;6.610;2023-07-16T22:33:22;8.87;;;4.77;;
3004;SDS011;1512;51.486;6.610;2023-07-16T22:37:30;7.57;;;4.93;;
3004;SDS011;1512;51.486;6.610;2023-07-16T22:41:39;5.30;;;4.80;;
3004;SDS011;1512;51.486;6.610;2023-07-16T22:45:48;5.50;;;4.33;;
3004;SDS011;1512;51.486;6.610;2023-07-16T22:49:57;5.70;;;4.50;;
3004;SDS011;1512;51.486;6.610;2023-07-16T22:54:05;9.60;;;3.93;;
3004;SDS011;1512;51.486;6.610;2023-07-16T22:58:14;4.77;;;3.83;;
3004;SDS011;1512;51.486;6.610;2023-07-16T23:02:23;8.30;;;4.47;;
3004;SDS011;1512;51.486;6.610;2023-07-16T23:06:31;6.07;;;4.37;;
3004;SDS011;1512;51.486;6.610;2023-07-16T23:10:40;6.93;;;4.07;;
3004;SDS011;1512;51.486;6.610;2023-07-16T23:14:49;4.47;;;4.03;;
3004;SDS011;1512;51.486;6.610;2023-07-16T23:18:57;5.40;;;3.70;;
3004;SDS011;1512;51.486;6.610;2023-07-16T23:23:06;4.73;;;4.07;;
3004;SDS011;1512;51.486;6.610;2023-07-16T23:27:15;6.33;;;4.13;;
3004;SDS011;1512;51.486;6.610;2023-07-16T23:31:24;7.23;;;4.00;;
3004;SDS011;1512;51.486;6.610;2023-07-16T23:35:33;7.30;;;4.50;;
3004;SDS011;1512;51.486;6.610;2023-07-16T23:39:41;6.30;;;4.60;;
3004;SDS011;1512;51.486;6.610;2023-07-16T23:43:50;5.90;;;4.60;;
3004;SDS011;1512;51.486;6.610;2023-07-16T23:47:59;5.80;;;4.50;;
3004;SDS011;1512;51.486;6.610;2023-07-16T23:52:08;10.07;;;5.07;;
3004;SDS011;1512;51.486;6.610;2023-07-16T23:56:17;4.90;;;4.37;;
